Jump to content


DELTA AIRLINES FLIGHT DL8342 FLOWN ON 01-23-2018 BY CAPTAIN JIM BOERMAN

Pilot StatsCaptain Jim Boerman (LDP136) • 4,917.8 total hours • 1,480 total flights [View Logbook]
FLIGHT DETAILS
StatusReceived and approved on 2018-01-23 at 16:01:55
Origin AirportCharles-de-Gaulle (LFPG) • Paris, France (392 feet MSL)
Filed Flight PlanLFPG PON UT300 SENLO UN502 JSY UN160 NAKID UN83 LEDGO RESNO NATF JANJO N384A YBC J555 ML J553 DICEN Q852 TAMKO CYUL
Destination AirportMontreal-Pierre-Elliott-Trudeau (CYUL) • Montreal, Quebec, Canada (118 feet MSL)
Alternate AirportOttawa-Macdonald-Cartier Intl (CYOW) • Ottawa, Ontario, Canada (374 feet MSL)
AirlineDelta Airlines
AircraftBoeing 777-200LR (77L / B777-200LR)
FS Aircraft UsedPMDG 777-232LR Delta Air Lines
Cruising AltitudeFL340
Distance Flown2,983 nautical miles
Passengers Onboard109 passengers (36.21% full)
DEPARTURE DETAILS
Time Out14:35:25
Taxi Data519,416 lbs total with 124,592 lbs of fuel onboard
Takeoff Data14:51:12 (16 minutes after leaving gate/ramp) • 517,572 lbs total • 7° pitch at 178 knots
Departure METARLFPG 231243Z 19014KT 3000 -DZ BKN005 08/07 Q1023 TEMPO 4000 -RADZ SCT003 BKN005
ARRIVAL DETAILS
Landing Data17:26:34 • 413,739 lbs total • 2° pitch doing 142 knots at a rate of -203.00 feet/minute with 17,773 lbs of fuel onboard
Time In17:36:43 (10 minutes after landing)
Ramp Weight412,597 lbs total
Total Fuel Used106,819 lbs
Total Block Time08:01:01 (8 hours) while 26 minutes were spent on the ground
Arrival METARCYUL 232100Z 03011KT 4SM -FZRA BR OVC004 M04/M04 A2946 RMK ST8 SLP978
MISCELLANEOUS DETAILS
LiveDISPATCH Version4.8.3.1
FS Version
FSUIPC Version5.12
OS VersionWindows 7 32-bit
Screen Resolution1920 x 1080
Pilot's CommentsNo Comments Reported
FLIGHT MAP